Time;durP1;ratioP1;P1;durP2;ratioP2;P2;SDS_P1;SDS_P2;PMS_P1;PMS_P2;Temp;Humidity;BMP_temperature;BMP_pressure;BME280_temperature;BME280_humidity;BME280_pressure;Samples;Min_cycle;Max_cycle;Signal;HPM_P1;HPM_P2
2022/09/18 00:02:08;;;;;;;;;;;;;;;9.76;100.00;97856.84;104974;1273;62124;-75
2022/09/18 00:04:34;;;;;;;;;;;;;;;9.75;100.00;97853.70;105006;1271;62200;-73
2022/09/18 00:07:00;;;;;;;;;;;;;;;9.74;100.00;97856.27;105102;1271;61994;-74
2022/09/18 00:09:26;;;;;;;;;;;;;;;9.73;100.00;97853.64;105123;1271;62181;-73
2022/09/18 00:11:52;;;;;;;;;;;;;;;9.72;100.00;97851.24;105124;1271;62147;-74
2022/09/18 00:14:20;;;;;;;;;;;;;;;9.72;100.00;97849.50;105163;1271;62232;-76
2022/09/18 00:16:46;;;;;;;;;;;;;;;9.71;100.00;97853.66;104998;1271;62225;-75
2022/09/18 00:19:12;;;;;;;;;;;;;;;9.71;100.00;97853.48;105162;1271;62022;-77
2022/09/18 00:21:40;;;;;;;;;;;;;;;9.71;100.00;97849.27;104921;1271;62181;-74
2022/09/18 00:24:05;;;;;;;;;;;;;;;9.71;100.00;97848.19;104881;1271;62136;-75
2022/09/18 00:26:32;;;;;;;;;;;;;;;9.70;100.00;97850.77;104950;1270;62190;-75
2022/09/18 00:28:58;;;;;;;;;;;;;;;9.70;100.00;97848.05;105344;1271;62077;-74
2022/09/18 00:31:28;;;;;;;;;;;;;;;9.72;100.00;97852.02;105169;1271;62158;-74
2022/09/18 00:33:55;;;;;;;;;;;;;;;9.71;100.00;97847.79;105326;1271;74479;-73
2022/09/18 00:36:21;;;;;;;;;;;;;;;9.71;100.00;97846.93;105258;1271;62117;-74
2022/09/18 00:38:48;;;;;;;;;;;;;;;9.71;100.00;97845.30;105313;1271;62104;-75
2022/09/18 00:41:15;;;;;;;;;;;;;;;9.72;100.00;97842.27;104941;1272;62291;-75
2022/09/18 00:43:41;;;;;;;;;;;;;;;9.72;100.00;97843.68;105243;1271;70289;-74
2022/09/18 00:46:07;;;;;;;;;;;;;;;9.72;100.00;97841.91;104934;1274;62208;-74
2022/09/18 00:48:45;;;;;;;;;;;;;;;9.70;100.00;97839.34;105144;1271;62153;-74
2022/09/18 00:51:13;;;;;;;;;;;;;;;9.70;100.00;97843.32;105153;1271;62013;-74
2022/09/18 00:53:41;;;;;;;;;;;;;;;9.70;100.00;97839.06;105199;1271;76202;-73
2022/09/18 00:56:08;;;;;;;;;;;;;;;9.69;100.00;97843.36;105179;1271;69347;-75
2022/09/18 00:58:35;;;;;;;;;;;;;;;9.68;100.00;97840.39;105305;1271;73147;-75
2022/09/18 01:01:01;;;;;;;;;;;;;;;9.68;100.00;97841.30;105276;1271;62264;-76
2022/09/18 01:03:28;;;;;;;;;;;;;;;9.68;100.00;97839.02;105154;1271;62047;-75
2022/09/18 01:05:54;;;;;;;;;;;;;;;9.66;100.00;97840.90;105166;1271;62161;-75
2022/09/18 01:08:35;;;;;;;;;;;;;;;9.65;100.00;97840.13;105183;1271;62165;-75
2022/09/18 01:11:02;;;;;;;;;;;;;;;9.63;100.00;97837.56;104877;1271;73973;-76
2022/09/18 01:13:47;;;;;;;;;;;;;;;9.63;100.00;97837.12;105121;1271;62149;-75
2022/09/18 01:16:19;;;;;;;;;;;;;;;9.60;100.00;97839.25;105140;1271;62082;-75
2022/09/18 01:18:51;;;;;;;;;;;;;;;9.60;100.00;97834.51;105155;1271;77339;-74
2022/09/18 01:21:47;;;;;;;;;;;;;;;9.59;100.00;97834.44;105153;1271;70802;-74
2022/09/18 01:24:32;;;;;;;;;;;;;;;9.56;100.00;97833.21;104650;1277;74616;-74
2022/09/18 01:27:01;;;;;;;;;;;;;;;9.54;100.00;97835.03;104694;1277;62163;-74
2022/09/18 01:29:27;;;;;;;;;;;;;;;9.51;100.00;97838.27;104671;1277;62908;-75
2022/09/18 01:32:06;;;;;;;;;;;;;;;9.50;100.00;97836.88;104708;1277;62147;-76
2022/09/18 01:34:45;;;;;;;;;;;;;;;9.48;100.00;97836.71;104680;1277;71112;-75
2022/09/18 01:37:25;;;;;;;;;;;;;;;9.47;100.00;97835.77;104680;1277;74383;-75
2022/09/18 01:40:06;;;;;;;;;;;;;;;9.44;100.00;97836.68;104676;1277;62043;-75
2022/09/18 01:42:34;;;;;;;;;;;;;;;9.42;100.00;97839.48;104725;1277;62150;-75
2022/09/18 01:45:03;;;;;;;;;;;;;;;9.39;100.00;97838.81;104493;1277;76053;-74
2022/09/18 01:47:33;;;;;;;;;;;;;;;9.38;100.00;97843.92;104677;1277;69787;-75
2022/09/18 01:50:00;;;;;;;;;;;;;;;9.36;100.00;97848.30;104510;1277;71706;-75
2022/09/18 01:52:28;;;;;;;;;;;;;;;9.35;100.00;97851.59;104640;1277;62145;-76
2022/09/18 01:54:57;;;;;;;;;;;;;;;9.32;100.00;97851.69;104732;1277;62109;-75
2022/09/18 01:57:55;;;;;;;;;;;;;;;9.30;100.00;97854.84;104670;1277;76999;-75
2022/09/18 02:00:29;;;;;;;;;;;;;;;9.28;100.00;97856.63;104118;1278;70356;-75
2022/09/18 02:02:56;;;;;;;;;;;;;;;9.26;100.00;97857.44;104652;1277;74559;-74
2022/09/18 02:05:39;;;;;;;;;;;;;;;9.26;100.00;97860.68;104700;1278;62369;-75
2022/09/18 02:08:16;;;;;;;;;;;;;;;9.23;100.00;97859.98;104630;1277;62182;-77
2022/09/18 02:10:50;;;;;;;;;;;;;;;9.22;100.00;97860.42;104612;1277;77450;-73
2022/09/18 02:13:18;;;;;;;;;;;;;;;9.20;100.00;97863.02;104664;1277;69372;-75
2022/09/18 02:15:46;;;;;;;;;;;;;;;9.18;100.00;97859.67;104613;1277;73388;-75
2022/09/18 02:18:16;;;;;;;;;;;;;;;9.17;100.00;97860.11;104604;1277;62074;-76
2022/09/18 02:20:43;;;;;;;;;;;;;;;9.17;100.00;97861.00;104742;1277;62226;-74
2022/09/18 02:23:10;;;;;;;;;;;;;;;9.16;100.00;97867.15;104586;1277;77316;-73
2022/09/18 02:25:42;;;;;;;;;;;;;;;9.14;100.00;97866.21;104606;1278;62242;-74
2022/09/18 02:28:09;;;;;;;;;;;;;;;9.12;100.00;97869.73;104621;1277;73522;-74
2022/09/18 02:30:38;;;;;;;;;;;;;;;9.10;100.00;97873.58;104641;1277;62300;-75
2022/09/18 02:33:07;;;;;;;;;;;;;;;9.10;100.00;97873.11;104630;1277;62312;-75
2022/09/18 02:35:41;;;;;;;;;;;;;;;9.08;100.00;97875.70;104828;1271;76268;-74
2022/09/18 02:38:34;;;;;;;;;;;;;;;9.06;100.00;97872.17;104954;1271;70577;-74
2022/09/18 02:41:00;;;;;;;;;;;;;;;9.03;100.00;97872.36;104703;1277;73484;-75
2022/09/18 02:43:32;;;;;;;;;;;;;;;9.01;100.00;97874.48;104755;1277;62124;-74
2022/09/18 02:46:07;;;;;;;;;;;;;;;8.99;100.00;97869.34;104733;1277;61987;-74
2022/09/18 02:48:35;;;;;;;;;;;;;;;8.97;100.00;97873.06;104763;1277;76206;-74
2022/09/18 02:51:19;;;;;;;;;;;;;;;8.94;100.00;97871.09;104802;1277;70701;-75
2022/09/18 02:53:48;;;;;;;;;;;;;;;8.91;100.00;97868.20;104794;1277;73449;-75
2022/09/18 02:56:23;;;;;;;;;;;;;;;8.88;100.00;97869.81;104766;1277;62190;-75
2022/09/18 02:58:52;;;;;;;;;;;;;;;8.86;100.00;97871.78;104753;1277;62085;-75
2022/09/18 03:01:19;;;;;;;;;;;;;;;8.83;100.00;97870.62;104501;1277;74167;-74
2022/09/18 03:03:45;;;;;;;;;;;;;;;8.79;100.00;97874.04;104834;1277;69641;-74
2022/09/18 03:06:12;;;;;;;;;;;;;;;8.76;100.00;97871.10;104755;1277;74276;-75
2022/09/18 03:08:38;;;;;;;;;;;;;;;8.73;100.00;97871.86;104533;1277;62371;-74
2022/09/18 03:11:04;;;;;;;;;;;;;;;8.70;100.00;97867.64;104774;1277;62254;-75
2022/09/18 03:13:30;;;;;;;;;;;;;;;8.66;100.00;97872.09;104780;1276;62184;-73
2022/09/18 03:15:56;;;;;;;;;;;;;;;8.61;100.00;97875.66;104768;1277;62087;-74
2022/09/18 03:18:22;;;;;;;;;;;;;;;8.56;100.00;97877.92;104921;1271;62180;-74
2022/09/18 03:20:48;;;;;;;;;;;;;;;8.53;100.00;97880.02;105137;1271;62547;-75
2022/09/18 03:23:14;;;;;;;;;;;;;;;8.48;100.00;97878.98;105169;1271;62114;-75
2022/09/18 03:25:40;;;;;;;;;;;;;;;8.42;100.00;97880.30;105129;1271;62139;-74
2022/09/18 03:28:06;;;;;;;;;;;;;;;8.37;100.00;97882.59;105165;1271;62288;-74
2022/09/18 03:30:32;;;;;;;;;;;;;;;8.33;100.00;97885.17;105146;1271;62200;-74
2022/09/18 03:32:59;;;;;;;;;;;;;;;8.29;100.00;97883.39;105160;1271;62063;-75
2022/09/18 03:35:25;;;;;;;;;;;;;;;8.24;100.00;97881.05;105126;1271;62145;-75
2022/09/18 03:37:51;;;;;;;;;;;;;;;8.20;100.00;97884.59;105094;1271;62193;-74
2022/09/18 03:40:17;;;;;;;;;;;;;;;8.15;100.00;97884.73;105102;1271;62115;-75
2022/09/18 03:42:43;;;;;;;;;;;;;;;8.12;100.00;97888.17;105117;1270;62101;-75
2022/09/18 03:45:10;;;;;;;;;;;;;;;8.09;100.00;97888.05;105134;1271;62162;-74
2022/09/18 03:47:36;;;;;;;;;;;;;;;8.07;100.00;97890.34;105174;1271;62638;-75
2022/09/18 03:50:05;;;;;;;;;;;;;;;8.05;100.00;97888.30;105141;1271;62175;-75
2022/09/18 03:52:32;;;;;;;;;;;;;;;8.02;100.00;97883.93;105255;1271;73513;-74
2022/09/18 03:54:58;;;;;;;;;;;;;;;8.01;100.00;97886.88;105100;1271;62082;-74
2022/09/18 03:57:24;;;;;;;;;;;;;;;8.00;100.00;97885.72;105086;1271;62167;-74
2022/09/18 03:59:50;;;;;;;;;;;;;;;7.98;100.00;97889.03;105115;1271;62217;-73
2022/09/18 04:02:15;;;;;;;;;;;;;;;7.96;100.00;97885.45;105088;1271;62205;-75
2022/09/18 04:04:42;;;;;;;;;;;;;;;7.96;100.00;97884.99;105084;1271;62060;-74
2022/09/18 04:07:07;;;;;;;;;;;;;;;7.95;100.00;97883.61;105060;1271;62211;-74
2022/09/18 04:09:33;;;;;;;;;;;;;;;7.96;100.00;97883.38;105181;1271;62602;-75
2022/09/18 04:12:00;;;;;;;;;;;;;;;7.97;100.00;97884.35;105112;1271;70413;-73
2022/09/18 04:14:26;;;;;;;;;;;;;;;7.98;100.00;97886.23;105141;1271;62174;-74
2022/09/18 04:16:51;;;;;;;;;;;;;;;7.98;100.00;97889.23;105147;1271;62181;-75
2022/09/18 04:19:17;;;;;;;;;;;;;;;7.98;100.00;97890.79;105100;1271;62114;-74
2022/09/18 04:21:44;;;;;;;;;;;;;;;8.01;100.00;97890.23;105111;1271;62149;-73
2022/09/18 04:24:09;;;;;;;;;;;;;;;8.05;100.00;97893.11;105059;1271;62076;-74
2022/09/18 04:26:36;;;;;;;;;;;;;;;8.09;100.00;97892.84;105091;1271;62274;-74
2022/09/18 04:29:02;;;;;;;;;;;;;;;8.12;100.00;97893.84;105090;1271;62084;-74
2022/09/18 04:31:28;;;;;;;;;;;;;;;8.16;100.00;97893.59;105096;1271;62114;-73
2022/09/18 04:33:54;;;;;;;;;;;;;;;8.18;100.00;97893.55;105061;1271;62149;-73
2022/09/18 04:36:20;;;;;;;;;;;;;;;8.21;100.00;97900.96;105085;1271;74490;-74
2022/09/18 04:38:46;;;;;;;;;;;;;;;8.23;100.00;97896.73;105126;1271;62182;-74
2022/09/18 04:41:12;;;;;;;;;;;;;;;8.25;100.00;97901.40;105109;1271;62151;-74
2022/09/18 04:43:38;;;;;;;;;;;;;;;8.25;100.00;97902.92;105119;1271;62177;-74
2022/09/18 04:46:04;;;;;;;;;;;;;;;8.27;100.00;97902.66;105113;1271;62260;-74
2022/09/18 04:48:30;;;;;;;;;;;;;;;8.27;100.00;97903.52;105099;1271;62194;-74
2022/09/18 04:50:56;;;;;;;;;;;;;;;8.27;100.00;97900.52;104910;1271;62099;-73
2022/09/18 04:53:22;;;;;;;;;;;;;;;8.26;100.00;97904.08;105195;1271;62619;-74
2022/09/18 04:55:48;;;;;;;;;;;;;;;8.26;100.00;97908.86;105212;1271;69406;-75
2022/09/18 04:58:15;;;;;;;;;;;;;;;8.27;100.00;97909.54;105073;1271;62178;-74
2022/09/18 05:00:41;;;;;;;;;;;;;;;8.28;100.00;97908.94;105158;1271;62103;-74
2022/09/18 05:03:07;;;;;;;;;;;;;;;8.29;100.00;97908.15;105089;1271;62265;-77
2022/09/18 05:05:34;;;;;;;;;;;;;;;8.31;100.00;97911.89;105041;1273;62108;-74
2022/09/18 05:08:00;;;;;;;;;;;;;;;8.33;100.00;97909.41;105103;1271;62171;-74
2022/09/18 05:10:26;;;;;;;;;;;;;;;8.38;100.00;97908.35;105064;1271;62081;-74
2022/09/18 05:12:53;;;;;;;;;;;;;;;8.44;100.00;97909.14;104920;1274;62348;-75
2022/09/18 05:15:20;;;;;;;;;;;;;;;8.50;100.00;97908.90;105231;1271;62085;-75
2022/09/18 05:17:46;;;;;;;;;;;;;;;8.57;100.00;97911.90;105188;1271;62144;-73
2022/09/18 05:20:13;;;;;;;;;;;;;;;8.62;100.00;97909.77;105067;1271;62167;-76
2022/09/18 05:22:42;;;;;;;;;;;;;;;8.67;100.00;97907.76;105109;1271;62251;-74
2022/09/18 05:25:08;;;;;;;;;;;;;;;8.74;100.00;97909.53;105210;1271;62152;-73
2022/09/18 05:27:35;;;;;;;;;;;;;;;8.81;100.00;97905.85;105126;1271;62098;-74
2022/09/18 05:30:01;;;;;;;;;;;;;;;8.87;100.00;97907.48;105094;1271;62092;-73
2022/09/18 05:32:27;;;;;;;;;;;;;;;8.96;100.00;97909.63;105126;1271;62174;-75
2022/09/18 05:34:53;;;;;;;;;;;;;;;9.08;100.00;97908.11;105101;1271;62184;-74
2022/09/18 05:37:18;;;;;;;;;;;;;;;9.21;100.00;97906.94;105116;1271;62079;-75
2022/09/18 05:39:45;;;;;;;;;;;;;;;9.29;100.00;97902.92;105069;1271;62194;-73
2022/09/18 05:42:11;;;;;;;;;;;;;;;9.35;100.00;97903.89;105242;1271;62187;-74
2022/09/18 05:44:36;;;;;;;;;;;;;;;9.35;100.00;97902.99;105225;1270;62188;-74
2022/09/18 05:47:03;;;;;;;;;;;;;;;9.34;100.00;97901.89;105150;1271;62089;-76
2022/09/18 05:49:30;;;;;;;;;;;;;;;9.30;100.00;97905.20;104972;1271;62178;-75
2022/09/18 05:51:55;;;;;;;;;;;;;;;9.28;100.00;97903.52;105136;1271;62098;-75
2022/09/18 05:54:21;;;;;;;;;;;;;;;9.26;100.00;97902.15;105145;1271;62770;-74
2022/09/18 05:56:48;;;;;;;;;;;;;;;9.29;100.00;97905.97;105102;1271;62154;-74
2022/09/18 05:59:13;;;;;;;;;;;;;;;9.35;100.00;97902.33;105137;1271;62178;-75
2022/09/18 06:01:39;;;;;;;;;;;;;;;9.38;100.00;97903.09;105113;1271;62072;-74
2022/09/18 06:04:05;;;;;;;;;;;;;;;9.39;100.00;97906.56;105096;1271;62164;-73
2022/09/18 06:06:31;;;;;;;;;;;;;;;9.42;100.00;97909.73;105164;1271;62561;-73
2022/09/18 06:08:57;;;;;;;;;;;;;;;9.43;100.00;97907.48;105112;1271;62182;-71
2022/09/18 06:11:23;;;;;;;;;;;;;;;9.46;100.00;97908.19;105048;1271;62182;-73
2022/09/18 06:13:51;;;;;;;;;;;;;;;9.47;100.00;97906.52;105105;1271;62185;-74
2022/09/18 06:16:18;;;;;;;;;;;;;;;9.50;100.00;97905.21;105142;1271;70549;-74
2022/09/18 06:18:45;;;;;;;;;;;;;;;9.53;100.00;97907.75;105032;1271;73724;-74
2022/09/18 06:21:13;;;;;;;;;;;;;;;9.58;100.00;97905.56;105112;1271;62104;-74
2022/09/18 06:23:40;;;;;;;;;;;;;;;9.65;100.00;97907.86;103809;1271;1814477;-74
2022/09/18 06:26:07;;;;;;;;;;;;;;;9.71;100.00;97912.73;104971;1272;76207;-74
2022/09/18 06:28:33;;;;;;;;;;;;;;;9.74;100.00;97918.91;105082;1271;69257;-76
2022/09/18 06:31:00;;;;;;;;;;;;;;;9.77;100.00;97915.41;105130;1271;62108;-75
2022/09/18 06:33:28;;;;;;;;;;;;;;;9.80;100.00;97914.97;105122;1271;62266;-75
2022/09/18 06:35:54;;;;;;;;;;;;;;;9.85;100.00;97918.35;105256;1271;62082;-76
2022/09/18 06:38:20;;;;;;;;;;;;;;;9.91;100.00;97913.17;105123;1271;62167;-74
2022/09/18 06:40:48;;;;;;;;;;;;;;;10.01;100.00;97917.03;105117;1271;62305;-73
2022/09/18 06:43:15;;;;;;;;;;;;;;;10.10;100.00;97917.14;105187;1271;73490;-75
2022/09/18 06:45:41;;;;;;;;;;;;;;;10.18;100.00;97917.18;105080;1271;62181;-74
2022/09/18 06:48:06;;;;;;;;;;;;;;;10.28;100.00;97914.48;105098;1271;62116;-75
2022/09/18 06:50:33;;;;;;;;;;;;;;;10.38;100.00;97915.56;104931;1272;62162;-73
2022/09/18 06:53:00;;;;;;;;;;;;;;;10.58;100.00;97916.55;105097;1271;62161;-74
2022/09/18 06:55:26;;;;;;;;;;;;;;;10.81;100.00;97916.20;105110;1271;62137;-74
2022/09/18 06:57:54;;;;;;;;;;;;;;;11.03;100.00;97912.77;105084;1271;62184;-75
2022/09/18 07:00:22;;;;;;;;;;;;;;;11.20;100.00;97904.85;105001;1271;62057;-74
2022/09/18 07:02:58;;;;;;;;;;;;;;;11.37;100.00;97908.16;105099;1271;77206;-75
2022/09/18 07:05:25;;;;;;;;;;;;;;;11.44;100.00;97914.73;104924;1274;68242;-76
2022/09/18 07:07:51;;;;;;;;;;;;;;;11.40;100.00;97911.46;105063;1271;73541;-75
2022/09/18 07:10:17;;;;;;;;;;;;;;;11.33;100.00;97915.81;105104;1271;62155;-75
2022/09/18 07:12:47;;;;;;;;;;;;;;;11.28;100.00;97919.10;105091;1271;62070;-75
2022/09/18 07:15:16;;;;;;;;;;;;;;;11.20;100.00;97922.82;105160;1271;76174;-74
2022/09/18 07:17:42;;;;;;;;;;;;;;;11.13;100.00;97922.00;105393;1271;70411;-73
2022/09/18 07:20:09;;;;;;;;;;;;;;;11.10;100.00;97929.79;105033;1272;64663;-75
2022/09/18 07:22:39;;;;;;;;;;;;;;;11.06;100.00;97931.02;105241;1270;62128;-74
2022/09/18 07:25:07;;;;;;;;;;;;;;;11.03;100.00;97936.73;105205;1270;62496;-75
2022/09/18 07:27:33;;;;;;;;;;;;;;;10.97;100.00;97939.76;104977;1270;77131;-75
2022/09/18 07:29:59;;;;;;;;;;;;;;;10.91;100.00;97936.67;105145;1270;69320;-75
2022/09/18 07:32:26;;;;;;;;;;;;;;;10.85;100.00;97941.27;105324;1270;73414;-74
2022/09/18 07:34:52;;;;;;;;;;;;;;;10.81;100.00;97941.34;105194;1270;62201;-74
2022/09/18 07:37:19;;;;;;;;;;;;;;;10.81;100.00;97938.13;105217;1267;62148;-73
2022/09/18 07:39:45;;;;;;;;;;;;;;;10.85;100.00;97936.29;105184;1270;62210;-73
2022/09/18 07:42:10;;;;;;;;;;;;;;;10.93;100.00;97937.96;105221;1270;62634;-74
2022/09/18 07:44:37;;;;;;;;;;;;;;;11.02;100.00;97934.90;105257;1270;62185;-74
2022/09/18 07:47:03;;;;;;;;;;;;;;;11.12;100.00;97935.49;105276;1270;61984;-76
2022/09/18 07:49:31;;;;;;;;;;;;;;;11.25;100.00;97934.84;105283;1270;62094;-73
2022/09/18 07:51:58;;;;;;;;;;;;;;;11.41;100.00;97931.36;105173;1270;62172;-74
2022/09/18 07:54:24;;;;;;;;;;;;;;;11.66;100.00;97933.40;104979;1270;62070;-74
2022/09/18 07:56:50;;;;;;;;;;;;;;;11.98;100.00;97930.25;105191;1270;62070;-73
2022/09/18 07:59:17;;;;;;;;;;;;;;;12.22;100.00;97928.77;105206;1270;62185;-75
2022/09/18 08:01:43;;;;;;;;;;;;;;;12.36;100.00;97927.85;105224;1270;62635;-75
2022/09/18 08:04:09;;;;;;;;;;;;;;;12.39;100.00;97929.19;105195;1270;62202;-76
2022/09/18 08:06:37;;;;;;;;;;;;;;;12.44;100.00;97931.20;105213;1270;62073;-74
2022/09/18 08:09:03;;;;;;;;;;;;;;;12.46;100.00;97932.31;105205;1270;62184;-75
2022/09/18 08:11:29;;;;;;;;;;;;;;;12.49;100.00;97935.41;105202;1270;62178;-77
2022/09/18 08:13:56;;;;;;;;;;;;;;;12.55;100.00;97936.31;105238;1270;62107;-75
2022/09/18 08:16:22;;;;;;;;;;;;;;;12.66;100.00;97935.43;105211;1270;62438;-75
2022/09/18 08:18:48;;;;;;;;;;;;;;;12.78;100.00;97938.13;105220;1270;62088;-76
2022/09/18 08:21:14;;;;;;;;;;;;;;;12.78;100.00;97940.95;105221;1270;62894;-75
2022/09/18 08:23:40;;;;;;;;;;;;;;;12.89;100.00;97940.08;105231;1270;62306;-75
2022/09/18 08:26:06;;;;;;;;;;;;;;;13.02;100.00;97941.16;105237;1270;62074;-74
2022/09/18 08:28:34;;;;;;;;;;;;;;;13.18;100.00;97942.90;105040;1270;62275;-76
2022/09/18 08:31:01;;;;;;;;;;;;;;;13.40;100.00;97943.68;105016;1270;62166;-76
2022/09/18 08:33:28;;;;;;;;;;;;;;;13.57;100.00;97937.74;105200;1270;62104;-74
2022/09/18 08:35:55;;;;;;;;;;;;;;;13.73;100.00;97936.44;105218;1270;62192;-74
2022/09/18 08:38:22;;;;;;;;;;;;;;;13.74;100.00;97939.86;104979;1271;62078;-76
2022/09/18 08:41:06;;;;;;;;;;;;;;;13.73;100.00;97942.52;105223;1270;74534;-77
2022/09/18 08:43:46;;;;;;;;;;;;;;;13.75;100.00;97939.64;105225;1270;67771;-76
2022/09/18 08:46:26;;;;;;;;;;;;;;;13.83;100.00;97937.38;105208;1270;72762;-74
2022/09/18 08:48:56;;;;;;;;;;;;;;;13.92;100.00;97932.94;105296;1270;62185;-74
2022/09/18 08:51:30;;;;;;;;;;;;;;;13.83;100.00;97929.02;105265;1270;62159;-75
2022/09/18 08:54:06;;;;;;;;;;;;;;;13.71;100.00;97929.15;105010;1270;75684;-75
2022/09/18 08:56:33;;;;;;;;;;;;;;;13.67;100.00;97932.70;105251;1270;68939;-74
2022/09/18 08:59:04;;;;;;;;;;;;;;;13.44;100.00;97929.74;105232;1270;73003;-75
2022/09/18 09:01:45;;;;;;;;;;;;;;;13.27;100.00;97936.16;105155;1270;62156;-74
2022/09/18 09:04:23;;;;;;;;;;;;;;;13.11;100.00;97933.73;105294;1270;61974;-76
2022/09/18 09:07:08;;;;;;;;;;;;;;;13.29;100.00;97930.86;105315;1270;76173;-75
2022/09/18 09:09:38;;;;;;;;;;;;;;;13.51;100.00;97922.95;105297;1270;70553;-74
2022/09/18 09:12:12;;;;;;;;;;;;;;;13.78;100.00;97918.76;105305;1270;73008;-75
2022/09/18 09:14:58;;;;;;;;;;;;;;;13.96;100.00;97911.37;105173;1270;62118;-74
2022/09/18 09:17:39;;;;;;;;;;;;;;;14.34;100.00;97912.41;105234;1270;62062;-74
2022/09/18 09:20:05;;;;;;;;;;;;;;;14.76;100.00;97909.96;105276;1270;76092;-75
2022/09/18 09:22:32;;;;;;;;;;;;;;;14.81;100.00;97911.78;105307;1270;69406;-74
2022/09/18 09:24:58;;;;;;;;;;;;;;;14.79;100.00;97908.27;105230;1270;63628;-74
2022/09/18 09:27:26;;;;;;;;;;;;;;;14.87;100.00;97904.35;105318;1270;62150;-74
2022/09/18 09:29:59;;;;;;;;;;;;;;;14.99;100.00;97909.20;105268;1270;62145;-75
2022/09/18 09:32:28;;;;;;;;;;;;;;;14.98;100.00;97902.59;105221;1270;76160;-75
2022/09/18 09:34:57;;;;;;;;;;;;;;;14.84;100.00;97908.81;105267;1270;69442;-75
2022/09/18 09:37:29;;;;;;;;;;;;;;;14.68;100.00;97910.11;105269;1270;74579;-75
2022/09/18 09:40:04;;;;;;;;;;;;;;;14.32;100.00;97910.13;105257;1270;62169;-75
2022/09/18 09:42:37;;;;;;;;;;;;;;;13.96;100.00;97904.50;105305;1270;62066;-74
2022/09/18 09:45:13;;;;;;;;;;;;;;;13.77;100.00;97915.89;105228;1270;76380;-75
2022/09/18 09:47:44;;;;;;;;;;;;;;;13.69;100.00;97920.53;105261;1270;70360;-73
2022/09/18 09:50:11;;;;;;;;;;;;;;;13.60;100.00;97916.60;105200;1270;73396;-74
2022/09/18 09:52:40;;;;;;;;;;;;;;;13.43;100.00;97913.44;105038;1270;62383;-75
2022/09/18 09:55:07;;;;;;;;;;;;;;;13.25;100.00;97917.41;105079;1271;62333;-74
2022/09/18 09:57:38;;;;;;;;;;;;;;;13.35;100.00;97918.82;105208;1270;77186;-76
2022/09/18 10:00:29;;;;;;;;;;;;;;;13.55;100.00;97918.52;105209;1270;70320;-75
2022/09/18 10:03:04;;;;;;;;;;;;;;;13.78;100.00;97914.98;105153;1270;73499;-74
2022/09/18 10:05:33;;;;;;;;;;;;;;;14.01;100.00;97917.23;105118;1270;62076;-76
2022/09/18 10:08:11;;;;;;;;;;;;;;;14.34;100.00;97918.32;105215;1270;62399;-75
2022/09/18 10:10:38;;;;;;;;;;;;;;;14.58;100.00;97918.95;105224;1270;75743;-76
2022/09/18 10:13:15;;;;;;;;;;;;;;;14.59;100.00;97931.89;105223;1270;62168;-76
2022/09/18 10:15:43;;;;;;;;;;;;;;;14.34;100.00;97935.60;105215;1270;74322;-75
2022/09/18 10:18:32;;;;;;;;;;;;;;;14.16;100.00;97935.22;105233;1270;62718;-75
2022/09/18 10:21:05;;;;;;;;;;;;;;;14.06;100.00;97941.02;104576;1279;62052;-75
2022/09/18 10:23:38;;;;;;;;;;;;;;;14.26;100.00;97943.36;104475;1279;77340;-75
2022/09/18 10:26:05;;;;;;;;;;;;;;;14.69;100.00;97943.63;104541;1278;68360;-74
2022/09/18 10:28:31;;;;;;;;;;;;;;;15.00;100.00;97944.05;104600;1278;73375;-77
2022/09/18 10:30:59;;;;;;;;;;;;;;;15.02;100.00;97951.66;104667;1278;62202;-73
2022/09/18 10:33:36;;;;;;;;;;;;;;;14.99;100.00;97952.90;104583;1278;62219;-75
2022/09/18 10:36:07;;;;;;;;;;;;;;;14.96;100.00;97960.70;104575;1279;77389;-73
2022/09/18 10:38:36;;;;;;;;;;;;;;;14.74;100.00;97967.58;104570;1278;69390;-76
2022/09/18 10:41:42;;;;;;;;;;;;;;;14.68;100.00;97967.86;104579;1279;73263;-74
2022/09/18 10:44:13;;;;;;;;;;;;;;;14.75;100.00;97967.19;104072;1284;62178;-74
2022/09/18 10:46:50;;;;;;;;;;;;;;;14.64;100.00;97970.91;104116;1284;62192;-74
2022/09/18 10:49:21;;;;;;;;;;;;;;;14.54;100.00;97974.00;104051;1284;77680;-74
2022/09/18 10:51:50;;;;;;;;;;;;;;;14.44;100.00;97978.33;104087;1284;69391;-75
2022/09/18 10:54:17;;;;;;;;;;;;;;;14.37;100.00;97974.63;104075;1285;74649;-75
2022/09/18 10:56:44;;;;;;;;;;;;;;;14.33;100.00;97973.98;104081;1284;62129;-75
2022/09/18 10:59:28;;;;;;;;;;;;;;;14.38;100.00;97975.75;104665;1276;61948;-74
2022/09/18 11:01:55;;;;;;;;;;;;;;;14.27;100.00;97986.84;104773;1276;77305;-74
2022/09/18 11:04:21;;;;;;;;;;;;;;;14.00;100.00;97988.23;104801;1276;70117;-74
2022/09/18 11:06:48;;;;;;;;;;;;;;;13.57;100.00;97987.20;104813;1276;62170;-77
2022/09/18 11:09:17;;;;;;;;;;;;;;;13.21;100.00;97990.45;104834;1276;62172;-74
2022/09/18 11:11:44;;;;;;;;;;;;;;;12.95;100.00;97986.23;104799;1276;62066;-76
2022/09/18 11:14:20;;;;;;;;;;;;;;;12.89;100.00;97985.72;104844;1276;77391;-74
2022/09/18 11:16:48;;;;;;;;;;;;;;;12.93;100.00;97980.54;105262;1271;70519;-77
2022/09/18 11:19:29;;;;;;;;;;;;;;;13.05;100.00;97978.85;105247;1270;74402;-76
2022/09/18 11:21:58;;;;;;;;;;;;;;;13.22;100.00;97978.60;105200;1270;62151;-75
2022/09/18 11:24:34;;;;;;;;;;;;;;;13.27;100.00;97977.27;105263;1270;62076;-76
2022/09/18 11:27:01;;;;;;;;;;;;;;;13.15;100.00;97983.08;105224;1270;75788;-76
2022/09/18 11:29:30;;;;;;;;;;;;;;;12.95;100.00;97981.90;105304;1270;70317;-74
2022/09/18 11:31:58;;;;;;;;;;;;;;;12.74;100.00;97981.80;105229;1270;73382;-77
2022/09/18 11:34:27;;;;;;;;;;;;;;;12.44;100.00;97981.66;104967;1271;62091;-74
2022/09/18 11:36:56;;;;;;;;;;;;;;;12.27;100.00;97984.22;105114;1270;62048;-75
2022/09/18 11:39:25;;;;;;;;;;;;;;;12.17;100.00;97989.77;105205;1268;77508;-76
2022/09/18 11:41:52;;;;;;;;;;;;;;;12.11;100.00;97989.13;105197;1270;69946;-74
2022/09/18 11:44:25;;;;;;;;;;;;;;;12.03;100.00;97989.91;104939;1270;74431;-75
2022/09/18 11:47:03;;;;;;;;;;;;;;;11.96;100.00;97983.32;105236;1270;62367;-75
2022/09/18 11:50:01;;;;;;;;;;;;;;;11.87;100.00;97983.92;105286;1270;62004;-75
2022/09/18 11:52:32;;;;;;;;;;;;;;;11.73;100.00;97981.20;104584;1278;76451;-74
2022/09/18 11:55:33;;;;;;;;;;;;;;;11.60;100.00;97980.48;104581;1278;70460;-75
2022/09/18 11:58:04;;;;;;;;;;;;;;;11.50;100.00;97998.30;103912;1285;74125;-76
2022/09/18 12:00:35;;;;;;;;;;;;;;;11.49;100.00;97995.44;104082;1282;62155;-76
2022/09/18 12:03:14;;;;;;;;;;;;;;;11.53;100.00;97998.77;104066;1282;62437;-76
2022/09/18 12:05:51;;;;;;;;;;;;;;;11.65;100.00;97997.50;104055;1282;76753;-76
2022/09/18 12:08:19;;;;;;;;;;;;;;;12.02;100.00;97998.95;104079;1283;69574;-74
2022/09/18 12:10:52;;;;;;;;;;;;;;;12.58;100.00;97996.55;104091;1282;62240;-75
2022/09/18 12:13:18;;;;;;;;;;;;;;;13.12;100.00;97989.49;104079;1282;62212;-76
2022/09/18 12:16:09;;;;;;;;;;;;;;;13.54;100.00;97991.20;104057;1282;62218;-74
2022/09/18 12:18:42;;;;;;;;;;;;;;;13.87;100.00;97992.05;103406;1290;76282;-74
2022/09/18 12:21:14;;;;;;;;;;;;;;;14.16;100.00;97987.58;103440;1290;70406;-74
2022/09/18 12:23:41;;;;;;;;;;;;;;;14.28;100.00;97986.80;103422;1290;74459;-75
2022/09/18 12:26:12;;;;;;;;;;;;;;;14.42;100.00;97981.30;103390;1289;62404;-75
2022/09/18 12:28:53;;;;;;;;;;;;;;;14.46;100.00;97987.13;103694;1284;62190;-75
2022/09/18 12:31:32;;;;;;;;;;;;;;;14.32;100.00;98002.06;103983;1284;76264;-76
2022/09/18 12:34:08;;;;;;;;;;;;;;;14.04;100.00;98004.17;104719;1277;70740;-75
2022/09/18 12:36:35;;;;;;;;;;;;;;;13.79;100.00;98010.30;104703;1278;73479;-74
2022/09/18 12:39:05;;;;;;;;;;;;;;;13.76;100.00;98013.75;104664;1277;62087;-76
2022/09/18 12:41:37;;;;;;;;;;;;;;;13.70;100.00;98018.44;104699;1277;62074;-74
2022/09/18 12:44:03;;;;;;;;;;;;;;;13.41;100.00;98021.74;104706;1278;77554;-75
2022/09/18 12:46:38;;;;;;;;;;;;;;;13.17;100.00;98024.83;104695;1278;62264;-75